createdAt,value
2017-09-27T00:01:02.566Z,12.30
2017-09-27T00:03:30.276Z,12.30
2017-09-27T00:08:37.168Z,12.50
2017-09-27T00:11:04.722Z,12.50
2017-09-27T00:13:32.357Z,12.50
2017-09-27T00:16:00.086Z,12.50
2017-09-27T00:18:27.709Z,12.50
2017-09-27T00:20:55.347Z,12.50
2017-09-27T00:23:23.052Z,12.50
2017-09-27T00:25:50.689Z,12.50
2017-09-27T00:28:18.335Z,12.50
2017-09-27T00:30:46.050Z,12.40
2017-09-27T00:33:13.688Z,12.30
2017-09-27T00:35:41.320Z,12.20
2017-09-27T00:38:09.043Z,12.20
2017-09-27T00:40:36.678Z,12.20
2017-09-27T00:43:04.322Z,12.10
2017-09-27T00:45:32.121Z,12.10
2017-09-27T00:47:59.757Z,12.10
2017-09-27T00:50:27.404Z,12.00
2017-09-27T00:52:55.101Z,11.80
2017-09-27T00:55:22.732Z,11.80
2017-09-27T00:57:50.362Z,11.80
2017-09-27T01:00:18.072Z,11.80
2017-09-27T01:02:46.594Z,11.80
2017-09-27T01:05:14.228Z,11.80
2017-09-27T01:07:41.922Z,11.70
2017-09-27T01:10:09.559Z,11.60
2017-09-27T01:12:37.202Z,11.50
2017-09-27T01:15:04.915Z,11.40
2017-09-27T01:17:32.559Z,11.40
2017-09-27T01:20:00.203Z,11.30
2017-09-27T01:22:27.904Z,11.30
2017-09-27T01:24:55.544Z,11.40
2017-09-27T01:27:23.174Z,11.40
2017-09-27T01:29:50.869Z,11.40
2017-09-27T01:32:18.512Z,11.40
2017-09-27T01:37:27.305Z,11.40
2017-09-27T01:39:54.943Z,11.30
2017-09-27T01:42:22.584Z,11.40
2017-09-27T01:44:50.266Z,11.40
2017-09-27T01:47:17.900Z,11.40
2017-09-27T01:49:46.490Z,11.30
2017-09-27T01:52:15.043Z,11.10
2017-09-27T01:54:42.687Z,11.10
2017-09-27T01:57:10.326Z,11.00
2017-09-27T01:59:38.018Z,11.00
2017-09-27T02:02:05.694Z,11.00
2017-09-27T02:04:33.334Z,11.10
2017-09-27T02:07:01.033Z,11.10
2017-09-27T02:09:28.667Z,11.10
2017-09-27T02:11:56.315Z,11.00
2017-09-27T02:14:24.002Z,11.00
2017-09-27T02:16:51.640Z,11.00
2017-09-27T02:19:19.278Z,10.70
2017-09-27T02:21:46.974Z,10.70
2017-09-27T02:24:15.550Z,10.50
2017-09-27T02:26:43.190Z,10.40
2017-09-27T02:29:10.913Z,10.40
2017-09-27T02:31:38.546Z,10.40
2017-09-27T02:34:06.177Z,10.40
2017-09-27T02:36:33.897Z,10.40
2017-09-27T02:39:01.544Z,10.40
2017-09-27T02:41:29.178Z,10.40
2017-09-27T02:43:57.815Z,10.50
2017-09-27T02:46:25.446Z,10.50
2017-09-27T02:48:53.086Z,10.50
2017-09-27T02:51:20.814Z,10.50
2017-09-27T02:53:49.395Z,10.50
2017-09-27T02:56:17.029Z,10.50
2017-09-27T02:58:44.726Z,10.60
2017-09-27T03:01:12.362Z,10.70
2017-09-27T03:06:19.176Z,10.80
2017-09-27T03:08:46.805Z,10.90
2017-09-27T03:11:15.377Z,11.00
2017-09-27T03:13:43.070Z,10.90
2017-09-27T03:16:10.711Z,11.00
2017-09-27T03:18:38.349Z,10.90
2017-09-27T03:21:06.059Z,10.90
2017-09-27T03:23:33.686Z,10.90
2017-09-27T03:26:01.324Z,10.90
2017-09-27T03:28:29.025Z,10.80
2017-09-27T03:33:25.179Z,10.80
2017-09-27T03:35:52.866Z,10.80
2017-09-27T03:38:20.503Z,10.70
2017-09-27T03:40:48.886Z,10.80
2017-09-27T03:43:16.604Z,10.70
2017-09-27T03:45:44.236Z,10.70
2017-09-27T03:48:11.868Z,10.70
2017-09-27T03:50:39.575Z,10.70
2017-09-27T03:53:07.212Z,10.70
2017-09-27T03:55:34.850Z,10.60
2017-09-27T03:58:02.543Z,10.60
2017-09-27T04:00:30.187Z,10.60
2017-09-27T04:02:57.821Z,10.60
2017-09-27T04:05:25.527Z,10.50
2017-09-27T04:07:53.165Z,10.50
2017-09-27T04:10:20.797Z,10.40
2017-09-27T04:12:48.515Z,10.50
2017-09-27T04:15:16.162Z,10.50
2017-09-27T04:17:43.786Z,10.40
2017-09-27T04:20:11.495Z,10.30
2017-09-27T04:22:39.143Z,10.20
2017-09-27T04:25:06.778Z,10.10
2017-09-27T04:27:34.505Z,10.10
2017-09-27T04:32:41.311Z,10.10
2017-09-27T04:37:36.591Z,10.00
2017-09-27T04:40:05.131Z,10.10
2017-09-27T04:42:33.595Z,10.00
2017-09-27T04:45:01.230Z,10.00
2017-09-27T04:47:28.930Z,10.00
2017-09-27T04:49:56.572Z,10.00
2017-09-27T04:54:51.910Z,10.10
2017-09-27T04:57:19.548Z,10.10
2017-09-27T05:02:14.886Z,10.00
2017-09-27T05:04:42.519Z,9.90
2017-09-27T05:07:10.146Z,9.90
2017-09-27T05:09:37.846Z,9.70
2017-09-27T05:12:05.474Z,9.70
2017-09-27T05:14:33.122Z,9.60
2017-09-27T05:17:00.830Z,9.60
2017-09-27T05:19:28.471Z,9.50
2017-09-27T05:21:56.105Z,9.60
2017-09-27T05:24:23.793Z,9.60
2017-09-27T05:26:51.436Z,9.50
2017-09-27T05:29:19.069Z,9.50
2017-09-27T05:31:46.761Z,9.50
2017-09-27T05:34:15.047Z,9.50
2017-09-27T05:36:42.633Z,9.60
2017-09-27T05:39:10.334Z,9.60
2017-09-27T05:41:37.998Z,9.70
2017-09-27T05:44:05.619Z,9.70
2017-09-27T05:46:33.309Z,9.80
2017-09-27T05:49:00.947Z,9.80
2017-09-27T05:51:28.572Z,9.90
2017-09-27T05:53:56.283Z,9.80
2017-09-27T05:56:23.922Z,9.90
2017-09-27T06:01:30.740Z,10.30
2017-09-27T06:03:58.378Z,10.50
2017-09-27T06:06:26.776Z,10.60
2017-09-27T06:08:54.466Z,10.80
2017-09-27T06:11:22.112Z,10.90
2017-09-27T06:13:50.688Z,10.90
2017-09-27T06:16:19.355Z,10.90
2017-09-27T06:18:46.993Z,10.90
2017-09-27T06:21:14.637Z,11.00
2017-09-27T06:23:42.338Z,10.80
2017-09-27T06:26:09.982Z,10.90
2017-09-27T06:28:37.614Z,10.90
2017-09-27T06:31:05.318Z,11.00
2017-09-27T06:33:32.963Z,11.00
2017-09-27T06:36:01.446Z,11.10
2017-09-27T06:38:29.151Z,11.20
2017-09-27T06:40:56.799Z,11.30
2017-09-27T06:43:25.358Z,11.40
2017-09-27T06:45:53.058Z,11.30
2017-09-27T06:48:21.415Z,11.40
2017-09-27T06:50:49.052Z,11.40
2017-09-27T06:53:16.790Z,11.40
2017-09-27T06:55:44.430Z,11.50
2017-09-27T06:58:12.070Z,11.50
2017-09-27T07:00:39.765Z,11.50
2017-09-27T07:03:07.410Z,11.60
2017-09-27T07:05:35.046Z,11.60
2017-09-27T07:10:31.347Z,11.70
2017-09-27T07:15:27.642Z,11.80
2017-09-27T07:17:55.280Z,11.80
2017-09-27T07:20:22.919Z,11.90
2017-09-27T07:25:30.673Z,11.90
2017-09-27T07:27:59.317Z,12.00
2017-09-27T07:30:26.947Z,12.20
2017-09-27T07:32:54.590Z,12.20
2017-09-27T07:35:22.294Z,12.30
2017-09-27T07:37:50.746Z,12.40
2017-09-27T07:40:18.385Z,12.50
2017-09-27T07:42:46.160Z,12.70
2017-09-27T07:45:13.799Z,12.80
2017-09-27T07:47:41.438Z,12.80
2017-09-27T07:50:09.174Z,12.90
2017-09-27T07:52:36.819Z,12.90
2017-09-27T07:57:32.974Z,12.90
2017-09-27T08:02:29.198Z,13.10
2017-09-27T08:04:56.898Z,13.10
2017-09-27T08:07:24.546Z,13.00
2017-09-27T08:09:52.186Z,13.00
2017-09-27T08:12:19.895Z,13.20
2017-09-27T08:14:47.531Z,13.10
2017-09-27T08:17:15.162Z,13.00
2017-09-27T08:19:42.859Z,12.80
2017-09-27T08:22:10.508Z,13.00
2017-09-27T08:24:38.142Z,13.30
2017-09-27T08:27:05.834Z,13.40
2017-09-27T08:29:33.473Z,13.20
2017-09-27T08:32:01.116Z,13.00
2017-09-27T08:34:28.835Z,12.80
2017-09-27T08:36:56.470Z,12.90
2017-09-27T08:39:24.113Z,13.10
2017-09-27T08:41:52.748Z,13.20
2017-09-27T08:44:20.388Z,13.50
2017-09-27T08:49:27.206Z,13.60
2017-09-27T08:51:54.838Z,13.70
2017-09-27T08:54:22.474Z,13.90
2017-09-27T08:56:50.174Z,14.60
2017-09-27T08:59:17.810Z,15.20
2017-09-27T09:01:45.451Z,15.60
2017-09-27T09:04:13.173Z,15.80
2017-09-27T09:06:41.593Z,16.20
2017-09-27T09:09:09.230Z,16.30
2017-09-27T09:11:36.930Z,16.70
2017-09-27T09:14:04.575Z,16.20
2017-09-27T09:16:32.201Z,16.60
2017-09-27T09:18:59.918Z,16.80
2017-09-27T09:21:27.558Z,16.70
2017-09-27T09:23:55.194Z,16.50
2017-09-27T09:26:22.894Z,17.10
2017-09-27T09:28:50.540Z,17.10
2017-09-27T09:31:18.177Z,17.40
2017-09-27T09:33:45.912Z,17.60
2017-09-27T09:36:13.544Z,18.00
2017-09-27T09:38:41.182Z,18.30
2017-09-27T09:41:08.881Z,19.20
2017-09-27T09:43:36.518Z,19.00
2017-09-27T09:46:04.161Z,18.90
2017-09-27T09:48:32.048Z,18.30
2017-09-27T09:50:59.682Z,18.90
2017-09-27T09:53:27.330Z,18.70
2017-09-27T09:58:23.541Z,17.50
2017-09-27T10:00:51.183Z,17.70
2017-09-27T10:03:18.890Z,17.60
2017-09-27T10:05:47.374Z,18.20
2017-09-27T10:08:15.006Z,17.60
2017-09-27T10:10:42.727Z,17.90
2017-09-27T10:15:49.518Z,17.90
2017-09-27T10:18:17.164Z,18.20
2017-09-27T10:20:44.794Z,18.40
2017-09-27T10:23:12.505Z,18.90
2017-09-27T10:25:40.146Z,19.10
2017-09-27T10:28:07.789Z,19.10
2017-09-27T10:30:35.488Z,19.40
2017-09-27T10:33:03.883Z,19.00
2017-09-27T10:35:32.402Z,19.20
2017-09-27T10:38:00.116Z,18.90
2017-09-27T10:40:27.750Z,19.20
2017-09-27T10:42:56.336Z,19.50
2017-09-27T10:45:24.045Z,19.90
2017-09-27T10:47:51.679Z,19.80
2017-09-27T10:50:20.150Z,20.00
2017-09-27T10:52:47.848Z,19.60
2017-09-27T10:55:16.310Z,19.20
2017-09-27T10:57:43.946Z,19.20
2017-09-27T11:00:11.651Z,18.70
2017-09-27T11:02:39.282Z,19.30
2017-09-27T11:05:06.919Z,19.80
2017-09-27T11:07:34.628Z,20.40
2017-09-27T11:10:02.256Z,21.00
2017-09-27T11:12:29.892Z,20.60
2017-09-27T11:17:25.247Z,20.80
2017-09-27T11:19:53.726Z,20.40
2017-09-27T11:22:21.462Z,20.50
2017-09-27T11:24:49.103Z,20.70
2017-09-27T11:27:17.780Z,20.50
2017-09-27T11:29:45.488Z,20.70
2017-09-27T11:32:13.123Z,20.80
2017-09-27T11:34:40.759Z,20.90
2017-09-27T11:37:08.479Z,20.90
2017-09-27T11:39:36.112Z,21.30
2017-09-27T11:42:03.759Z,21.40
2017-09-27T11:47:11.418Z,22.10
2017-09-27T11:49:39.997Z,22.10
2017-09-27T11:52:07.628Z,22.40
2017-09-27T11:54:35.265Z,22.70
2017-09-27T11:57:02.992Z,23.10
2017-09-27T11:59:30.605Z,22.80
2017-09-27T12:04:25.948Z,22.60
2017-09-27T12:06:53.582Z,22.50
2017-09-27T12:09:21.218Z,22.90
2017-09-27T12:11:48.915Z,23.40
2017-09-27T12:14:17.524Z,23.30
2017-09-27T12:16:45.162Z,23.60
2017-09-27T12:19:12.874Z,23.10
2017-09-27T12:21:40.501Z,23.30
2017-09-27T12:24:08.141Z,23.60
2017-09-27T12:26:35.844Z,23.60
2017-09-27T12:29:03.483Z,24.20
2017-09-27T12:31:31.118Z,24.60
2017-09-27T12:33:58.835Z,24.70
2017-09-27T12:36:26.477Z,24.00
2017-09-27T12:38:54.111Z,23.80
2017-09-27T12:41:21.815Z,23.60
2017-09-27T12:43:49.444Z,23.20
2017-09-27T12:46:17.379Z,22.20
2017-09-27T12:48:45.096Z,22.40
2017-09-27T12:51:12.722Z,22.30
2017-09-27T12:53:40.356Z,22.80
2017-09-27T12:56:08.076Z,23.30
2017-09-27T12:58:35.708Z,23.00
2017-09-27T13:01:03.351Z,22.90
2017-09-27T13:03:31.055Z,22.90
2017-09-27T13:05:58.682Z,23.30
2017-09-27T13:08:26.314Z,22.30
2017-09-27T13:13:35.139Z,21.70
2017-09-27T13:16:02.834Z,22.00
2017-09-27T13:18:31.421Z,22.00
2017-09-27T13:20:59.994Z,21.80
2017-09-27T13:23:27.686Z,21.90
2017-09-27T13:25:55.335Z,21.90
2017-09-27T13:28:22.987Z,22.00
2017-09-27T13:30:50.674Z,21.70
2017-09-27T13:33:18.318Z,21.70
2017-09-27T13:35:45.959Z,21.60
2017-09-27T13:38:13.659Z,21.50
2017-09-27T13:40:41.295Z,21.80
2017-09-27T13:43:08.930Z,21.80
2017-09-27T13:48:04.257Z,21.00
2017-09-27T13:50:31.899Z,21.00
2017-09-27T13:55:27.234Z,21.30
2017-09-27T13:57:54.872Z,21.10
2017-09-27T14:02:50.209Z,21.30
2017-09-27T14:05:17.840Z,21.00
2017-09-27T14:07:45.553Z,21.00
2017-09-27T14:10:13.188Z,20.90
2017-09-27T14:12:40.834Z,21.00
2017-09-27T14:17:36.168Z,20.60
2017-09-27T14:20:03.811Z,21.00
2017-09-27T14:22:31.528Z,20.90
2017-09-27T14:24:59.158Z,21.00
2017-09-27T14:27:26.802Z,21.20
2017-09-27T14:32:22.129Z,21.40
2017-09-27T14:34:49.759Z,21.40
2017-09-27T14:39:59.518Z,21.20
2017-09-27T14:42:27.214Z,21.10
2017-09-27T14:47:22.479Z,21.30
2017-09-27T14:49:50.201Z,21.30
2017-09-27T14:52:17.837Z,21.30
2017-09-27T14:54:45.472Z,21.30
2017-09-27T14:57:13.171Z,21.30
2017-09-27T15:02:08.443Z,21.00
2017-09-27T15:04:36.173Z,21.00
2017-09-27T15:09:31.421Z,21.00
2017-09-27T15:11:59.125Z,21.00
2017-09-27T15:14:26.828Z,20.90
2017-09-27T15:16:54.464Z,21.00
2017-09-27T15:19:22.166Z,20.90
2017-09-27T15:21:49.796Z,20.80
2017-09-27T15:24:17.436Z,20.80
2017-09-27T15:26:45.138Z,20.80
2017-09-27T15:29:12.770Z,20.80
2017-09-27T15:31:40.409Z,20.80
2017-09-27T15:34:08.110Z,20.70
2017-09-27T15:36:36.712Z,20.70
2017-09-27T15:39:04.349Z,20.70
2017-09-27T15:41:32.055Z,20.50
2017-09-27T15:43:59.695Z,20.50
2017-09-27T15:46:27.323Z,20.40
2017-09-27T15:48:55.042Z,20.40
2017-09-27T15:51:23.182Z,20.40
2017-09-27T15:53:50.825Z,20.30
2017-09-27T15:56:18.528Z,20.20
2017-09-27T15:58:46.162Z,20.10
2017-09-27T16:01:13.827Z,20.10
2017-09-27T16:06:20.634Z,19.80
2017-09-27T16:08:48.355Z,19.80
2017-09-27T16:11:15.998Z,19.90
2017-09-27T16:13:43.631Z,20.00
2017-09-27T16:16:11.340Z,19.90
2017-09-27T16:18:38.975Z,20.00
2017-09-27T16:21:06.605Z,20.00
2017-09-27T16:23:34.309Z,19.90
2017-09-27T16:26:01.975Z,19.90
2017-09-27T16:28:29.596Z,19.90
2017-09-27T16:30:57.294Z,19.80
2017-09-27T16:33:24.980Z,19.70
2017-09-27T16:35:52.592Z,19.70
2017-09-27T16:40:47.923Z,19.60
2017-09-27T16:43:15.623Z,19.60
2017-09-27T16:45:43.329Z,19.60
2017-09-27T16:48:10.962Z,19.40
2017-09-27T16:50:38.599Z,19.40
2017-09-27T16:53:06.336Z,19.40
2017-09-27T16:58:04.765Z,19.30
2017-09-27T17:00:32.186Z,19.30
2017-09-27T17:03:00.695Z,19.20
2017-09-27T17:05:28.336Z,19.10
2017-09-27T17:07:56.099Z,19.00
2017-09-27T17:10:23.737Z,18.90
2017-09-27T17:15:19.074Z,18.80
2017-09-27T17:17:46.719Z,18.80
2017-09-27T17:22:42.083Z,18.60
2017-09-27T17:25:09.735Z,18.60
2017-09-27T17:27:37.369Z,18.60
2017-09-27T17:32:44.187Z,18.10
2017-09-27T17:35:11.919Z,17.80
2017-09-27T17:37:39.566Z,17.90
2017-09-27T17:42:34.939Z,17.80
2017-09-27T17:45:02.553Z,17.50
2017-09-27T17:49:58.839Z,17.80
2017-09-27T17:52:26.499Z,17.80
2017-09-27T17:54:54.138Z,17.80
2017-09-27T17:57:21.847Z,17.50
2017-09-27T17:59:49.486Z,17.60
2017-09-27T18:02:17.130Z,17.60
2017-09-27T18:07:29.320Z,17.40
2017-09-27T18:15:25.466Z,17.60
2017-09-27T18:20:36.855Z,17.40
2017-09-27T18:23:04.496Z,17.40
2017-09-27T18:25:32.153Z,17.40
2017-09-27T18:27:59.896Z,17.50
2017-09-27T18:30:27.541Z,17.50
2017-09-27T18:32:55.203Z,17.40
2017-09-27T18:35:22.909Z,17.40
2017-09-27T18:37:50.548Z,17.40
2017-09-27T18:40:18.222Z,17.40
2017-09-27T18:45:26.740Z,17.40
2017-09-27T18:47:54.526Z,17.40
2017-09-27T18:50:22.169Z,17.40
2017-09-27T18:52:49.808Z,17.30
2017-09-27T18:57:57.581Z,16.70
2017-09-27T19:00:25.300Z,16.90
2017-09-27T19:02:52.935Z,16.60
2017-09-27T19:05:20.575Z,16.60
2017-09-27T19:07:48.270Z,16.70
2017-09-27T19:10:15.906Z,16.70
2017-09-27T19:12:43.558Z,16.80
2017-09-27T19:15:11.262Z,16.80
2017-09-27T19:17:41.958Z,16.70
2017-09-27T19:20:09.597Z,16.40
2017-09-27T19:22:37.343Z,16.40
2017-09-27T19:25:05.029Z,16.50
2017-09-27T19:27:32.674Z,16.40
2017-09-27T19:32:28.044Z,16.40
2017-09-27T19:34:55.718Z,16.40
2017-09-27T19:37:23.444Z,16.40
2017-09-27T19:39:51.347Z,16.40
2017-09-27T19:42:18.986Z,16.30
2017-09-27T19:44:46.722Z,16.20
2017-09-27T19:47:14.576Z,16.20
2017-09-27T19:49:42.182Z,16.20
2017-09-27T19:52:09.908Z,16.20
2017-09-27T19:54:37.543Z,16.10
2017-09-27T19:57:05.200Z,16.10
2017-09-27T19:59:33.050Z,16.10
2017-09-27T20:02:00.691Z,16.10
2017-09-27T20:04:28.351Z,16.00
2017-09-27T20:06:56.047Z,15.90
2017-09-27T20:09:23.682Z,16.00
2017-09-27T20:11:51.334Z,16.00
2017-09-27T20:14:19.050Z,15.80
2017-09-27T20:16:46.684Z,15.40
2017-09-27T20:21:53.525Z,15.40
2017-09-27T20:24:21.240Z,15.60
2017-09-27T20:26:48.835Z,15.60
2017-09-27T20:31:44.140Z,15.50
2017-09-27T20:34:11.808Z,15.40
2017-09-27T20:39:07.614Z,15.50
2017-09-27T20:41:35.439Z,15.50
2017-09-27T20:44:03.419Z,15.60
2017-09-27T20:46:31.327Z,15.60
2017-09-27T20:48:58.825Z,15.60
2017-09-27T20:51:28.094Z,15.60
2017-09-27T20:53:56.647Z,15.50
2017-09-27T20:56:23.671Z,15.40
2017-09-27T20:58:51.455Z,15.20
2017-09-27T21:01:19.043Z,15.30
2017-09-27T21:03:46.685Z,15.40
2017-09-27T21:06:14.547Z,15.00
2017-09-27T21:08:42.140Z,15.10
2017-09-27T21:11:09.778Z,15.10
2017-09-27T21:18:43.787Z,15.00
2017-09-27T21:21:11.428Z,15.20
2017-09-27T21:23:39.078Z,15.30
2017-09-27T21:26:06.788Z,15.30
2017-09-27T21:28:34.440Z,15.30
2017-09-27T21:31:02.097Z,15.30
2017-09-27T21:33:29.770Z,15.30
2017-09-27T21:38:25.991Z,15.20
2017-09-27T21:40:53.692Z,15.10
2017-09-27T21:45:48.960Z,14.90
2017-09-27T21:48:16.662Z,15.00
2017-09-27T21:50:44.293Z,15.00
2017-09-27T21:53:11.926Z,15.10
2017-09-27T21:55:39.644Z,15.00
2017-09-27T22:00:34.908Z,15.10
2017-09-27T22:03:02.669Z,15.10
2017-09-27T22:07:58.844Z,15.00
2017-09-27T22:10:26.550Z,14.90
2017-09-27T22:12:54.190Z,14.90
2017-09-27T22:15:21.828Z,14.80
2017-09-27T22:17:49.538Z,14.80
2017-09-27T22:20:17.257Z,14.80
2017-09-27T22:22:44.812Z,14.90
2017-09-27T22:25:12.512Z,14.90
2017-09-27T22:27:40.154Z,14.90
2017-09-27T22:30:07.781Z,14.80
2017-09-27T22:32:35.490Z,14.80
2017-09-27T22:35:03.129Z,14.80
2017-09-27T22:37:30.763Z,14.50
2017-09-27T22:39:58.464Z,14.50
2017-09-27T22:50:02.538Z,14.40
2017-09-27T22:52:30.180Z,14.50
2017-09-27T22:57:26.481Z,14.50
2017-09-27T22:59:54.122Z,14.50
2017-09-27T23:02:21.832Z,14.50
2017-09-27T23:04:49.459Z,14.40
2017-09-27T23:07:17.098Z,14.30
2017-09-27T23:09:44.800Z,14.30
2017-09-27T23:12:12.434Z,14.30
2017-09-27T23:14:40.063Z,14.40
2017-09-27T23:17:07.771Z,14.30
2017-09-27T23:19:35.402Z,14.40
2017-09-27T23:22:03.059Z,14.30
2017-09-27T23:24:30.762Z,14.40
2017-09-27T23:26:58.398Z,14.20
2017-09-27T23:29:26.049Z,14.30
2017-09-27T23:31:53.769Z,14.00
2017-09-27T23:36:49.033Z,13.60
2017-09-27T23:39:16.729Z,13.50
2017-09-27T23:41:44.368Z,13.40
2017-09-27T23:44:12.005Z,13.40
2017-09-27T23:46:39.720Z,13.40
2017-09-27T23:51:34.999Z,13.50
2017-09-27T23:54:02.691Z,13.50
2017-09-27T23:56:30.322Z,13.50
2017-09-27T23:58:57.966Z,13.50
